createdAt,value
2018-10-11T00:00:48.470Z,19.60
2018-10-11T00:03:15.962Z,19.10
2018-10-11T00:05:43.562Z,17.90
2018-10-11T00:08:10.997Z,18.40
2018-10-11T00:10:38.414Z,18.80
2018-10-11T00:13:05.890Z,18.00
2018-10-11T00:15:33.291Z,17.90
2018-10-11T00:18:00.777Z,18.50
2018-10-11T00:20:28.236Z,18.50
2018-10-11T00:22:55.697Z,17.70
2018-10-11T00:25:23.147Z,17.00
2018-10-11T00:27:50.611Z,17.60
2018-10-11T00:30:18.097Z,18.60
2018-10-11T00:32:45.643Z,19.10
2018-10-11T00:35:13.170Z,18.90
2018-10-11T00:37:40.734Z,17.60
2018-10-11T00:40:09.139Z,16.70
2018-10-11T00:42:36.594Z,16.30
2018-10-11T00:45:04.417Z,16.50
2018-10-11T00:47:31.835Z,16.40
2018-10-11T00:49:59.381Z,16.50
2018-10-11T00:52:26.815Z,16.00
2018-10-11T00:54:54.373Z,15.90
2018-10-11T00:57:21.805Z,15.60
2018-10-11T00:59:49.254Z,15.80
2018-10-11T01:02:16.696Z,15.60
2018-10-11T01:04:44.194Z,15.10
2018-10-11T01:07:11.779Z,15.20
2018-10-11T01:09:39.234Z,16.40
2018-10-11T01:12:06.919Z,16.90
2018-10-11T01:14:34.462Z,16.30
2018-10-11T01:17:01.889Z,15.80
2018-10-11T01:19:29.369Z,16.70
2018-10-11T01:21:56.811Z,17.50
2018-10-11T01:24:24.328Z,17.20
2018-10-11T01:26:51.813Z,16.50
2018-10-11T01:29:19.402Z,16.40
2018-10-11T01:31:46.845Z,16.20
2018-10-11T01:34:14.361Z,16.10
2018-10-11T01:36:41.878Z,15.90
2018-10-11T01:39:09.359Z,16.10
2018-10-11T01:41:36.921Z,15.80
2018-10-11T01:44:04.469Z,16.10
2018-10-11T01:46:31.953Z,16.90
2018-10-11T01:48:59.526Z,17.90
2018-10-11T01:51:27.110Z,17.80
2018-10-11T01:53:54.697Z,17.00
2018-10-11T01:56:22.270Z,16.80
2018-10-11T01:58:53.126Z,16.60
2018-10-11T02:01:20.579Z,17.00
2018-10-11T02:03:48.049Z,17.60
2018-10-11T02:06:15.566Z,17.50
2018-10-11T02:08:43.128Z,17.40
2018-10-11T02:11:10.591Z,18.00
2018-10-11T02:13:38.050Z,18.50
2018-10-11T02:16:05.514Z,19.00
2018-10-11T02:18:32.972Z,19.50
2018-10-11T02:21:00.398Z,19.80
2018-10-11T02:23:27.846Z,19.70
2018-10-11T02:25:55.391Z,19.40
2018-10-11T02:28:22.967Z,18.90
2018-10-11T02:30:50.441Z,18.50
2018-10-11T02:33:18.220Z,17.60
2018-10-11T02:35:45.708Z,16.90
2018-10-11T02:38:13.167Z,16.40
2018-10-11T02:40:40.603Z,16.10
2018-10-11T02:43:08.114Z,16.80
2018-10-11T02:45:35.654Z,17.70
2018-10-11T02:48:03.287Z,18.30
2018-10-11T02:50:30.729Z,18.90
2018-10-11T02:52:58.267Z,19.10
2018-10-11T02:55:26.786Z,18.50
2018-10-11T02:58:05.717Z,17.40
2018-10-11T03:00:34.198Z,16.70
2018-10-11T03:03:10.298Z,16.50
2018-10-11T03:05:40.572Z,16.80
2018-10-11T03:08:10.734Z,17.30
2018-10-11T03:10:38.265Z,17.20
2018-10-11T03:13:08.255Z,16.80
2018-10-11T03:15:35.778Z,16.10
2018-10-11T03:18:09.842Z,15.70
2018-10-11T03:20:37.341Z,15.40
2018-10-11T03:23:05.030Z,16.10
2018-10-11T03:25:32.442Z,16.80
2018-10-11T03:27:59.906Z,17.40
2018-10-11T03:30:27.554Z,17.60
2018-10-11T03:32:55.084Z,17.80
2018-10-11T03:35:22.493Z,16.90
2018-10-11T03:37:49.933Z,17.00
2018-10-11T03:40:17.378Z,17.40
2018-10-11T03:42:44.994Z,17.10
2018-10-11T03:45:12.426Z,16.50
2018-10-11T03:47:39.943Z,16.80
2018-10-11T03:50:07.441Z,16.60
2018-10-11T03:52:34.886Z,16.30
2018-10-11T03:55:02.486Z,15.80
2018-10-11T03:57:29.957Z,15.60
2018-10-11T03:59:57.481Z,15.40
2018-10-11T04:02:25.227Z,15.80
2018-10-11T04:04:52.678Z,16.00
2018-10-11T04:07:20.156Z,16.60
2018-10-11T04:09:47.783Z,16.10
2018-10-11T04:12:15.232Z,15.70
2018-10-11T04:14:42.815Z,16.30
2018-10-11T04:17:10.297Z,16.10
2018-10-11T04:19:37.745Z,15.30
2018-10-11T04:22:05.438Z,14.90
2018-10-11T04:24:32.985Z,14.70
2018-10-11T04:27:00.447Z,14.50
2018-10-11T04:29:27.962Z,14.60
2018-10-11T04:31:55.495Z,14.40
2018-10-11T04:34:22.943Z,14.30
2018-10-11T04:36:50.436Z,14.10
2018-10-11T04:39:17.902Z,14.00
2018-10-11T04:41:45.430Z,14.00
2018-10-11T04:44:12.894Z,13.90
2018-10-11T04:46:40.742Z,13.90
2018-10-11T04:49:08.376Z,14.00
2018-10-11T04:51:35.845Z,14.60
2018-10-11T04:54:03.354Z,15.70
2018-10-11T04:56:30.887Z,16.00
2018-10-11T04:58:58.409Z,16.00
2018-10-11T05:01:26.732Z,16.10
2018-10-11T05:03:54.331Z,16.10
2018-10-11T05:06:21.787Z,15.30
2018-10-11T05:08:49.194Z,14.60
2018-10-11T05:11:16.713Z,14.20
2018-10-11T05:13:46.738Z,14.10
2018-10-11T05:16:14.945Z,14.40
2018-10-11T05:18:45.430Z,15.80
2018-10-11T05:21:12.936Z,15.40
2018-10-11T05:23:41.357Z,14.60
2018-10-11T05:26:09.007Z,14.30
2018-10-11T05:28:36.466Z,14.10
2018-10-11T05:31:03.950Z,14.90
2018-10-11T05:33:31.451Z,15.80
2018-10-11T05:35:58.918Z,16.70
2018-10-11T05:38:26.427Z,16.30
2018-10-11T05:40:54.183Z,15.40
2018-10-11T05:43:21.798Z,14.80
2018-10-11T05:45:54.012Z,14.30
2018-10-11T05:48:21.756Z,14.10
2018-10-11T05:50:50.022Z,15.20
2018-10-11T05:53:17.619Z,16.40
2018-10-11T05:55:45.213Z,17.20
2018-10-11T05:58:12.801Z,16.80
2018-10-11T06:00:40.531Z,15.50
2018-10-11T06:03:08.162Z,14.70
2018-10-11T06:05:35.695Z,14.30
2018-10-11T06:08:03.281Z,14.80
2018-10-11T06:10:32.978Z,15.70
2018-10-11T06:13:00.538Z,15.50
2018-10-11T06:15:28.133Z,15.00
2018-10-11T06:17:55.724Z,15.10
2018-10-11T06:20:23.232Z,15.70
2018-10-11T06:22:50.797Z,16.50
2018-10-11T06:25:18.328Z,17.10
2018-10-11T06:27:45.879Z,17.30
2018-10-11T06:30:14.151Z,17.40
2018-10-11T06:32:42.659Z,17.80
2018-10-11T06:35:10.452Z,18.20
2018-10-11T06:37:38.087Z,18.20
2018-10-11T06:40:05.634Z,17.50
2018-10-11T06:42:33.654Z,17.40
2018-10-11T06:45:01.927Z,17.20
2018-10-11T06:47:29.895Z,17.30
2018-10-11T06:49:57.745Z,17.90
2018-10-11T06:52:25.362Z,18.30
2018-10-11T06:54:52.921Z,18.60
2018-10-11T06:57:20.434Z,19.00
2018-10-11T06:59:47.923Z,19.20
2018-10-11T07:02:15.373Z,19.40
2018-10-11T07:04:42.931Z,19.70
2018-10-11T07:07:10.553Z,20.00
2018-10-11T07:09:38.014Z,20.40
2018-10-11T07:12:05.447Z,20.70
2018-10-11T07:14:32.932Z,20.90
2018-10-11T07:17:00.369Z,20.90
2018-10-11T07:19:27.938Z,20.70
2018-10-11T07:21:55.290Z,20.60
2018-10-11T07:24:22.734Z,20.60
2018-10-11T07:26:50.210Z,20.10
2018-10-11T07:29:17.671Z,20.20
2018-10-11T07:31:45.153Z,20.30
2018-10-11T07:34:12.697Z,20.10
2018-10-11T07:36:40.230Z,20.00
2018-10-11T07:39:10.477Z,19.50
2018-10-11T07:41:38.049Z,19.00
2018-10-11T07:44:06.074Z,18.90
2018-10-11T07:46:33.498Z,18.60
2018-10-11T07:49:01.051Z,18.50
2018-10-11T07:51:28.462Z,18.90
2018-10-11T07:54:00.127Z,19.30
2018-10-11T07:56:27.837Z,19.70
2018-10-11T07:58:55.301Z,19.80
2018-10-11T08:01:22.871Z,19.90
2018-10-11T08:03:50.251Z,20.00
2018-10-11T08:06:17.859Z,19.90
2018-10-11T08:08:45.265Z,20.10
2018-10-11T08:11:12.927Z,19.60
2018-10-11T08:13:40.486Z,19.10
2018-10-11T08:16:08.137Z,19.20
2018-10-11T08:18:35.486Z,19.30
2018-10-11T08:21:02.988Z,19.70
2018-10-11T08:23:30.546Z,20.40
2018-10-11T08:25:58.419Z,20.40
2018-10-11T08:28:25.574Z,20.10
2018-10-11T08:30:53.156Z,20.20
2018-10-11T08:33:21.083Z,20.00
2018-10-11T08:35:48.579Z,20.10
2018-10-11T08:38:16.280Z,20.00
2018-10-11T08:40:43.590Z,21.40
2018-10-11T08:43:11.030Z,23.30
2018-10-11T08:45:38.437Z,25.00
2018-10-11T08:48:06.090Z,26.50
2018-10-11T08:50:33.543Z,26.90
2018-10-11T08:53:01.073Z,25.80
2018-10-11T08:55:28.656Z,23.80
2018-10-11T08:57:56.069Z,23.50
2018-10-11T09:00:23.658Z,21.90
2018-10-11T09:02:51.245Z,20.40
2018-10-11T09:05:18.816Z,20.90
2018-10-11T09:07:46.294Z,21.80
2018-10-11T09:10:13.815Z,21.90
2018-10-11T09:12:41.258Z,21.70
2018-10-11T09:15:08.848Z,21.40
2018-10-11T09:17:36.305Z,21.20
2018-10-11T09:20:03.950Z,20.80
2018-10-11T09:22:31.511Z,20.70
2018-10-11T09:24:59.042Z,21.00
2018-10-11T09:27:26.548Z,21.10
2018-10-11T09:29:54.027Z,20.60
2018-10-11T09:32:21.746Z,20.30
2018-10-11T09:34:49.274Z,20.50
2018-10-11T09:37:16.802Z,20.30
2018-10-11T09:39:44.304Z,20.60
2018-10-11T09:42:11.882Z,20.70
2018-10-11T09:44:39.320Z,20.80
2018-10-11T09:47:07.177Z,21.20
2018-10-11T09:49:34.601Z,21.50
2018-10-11T09:52:02.047Z,21.70
2018-10-11T09:54:29.684Z,21.80
2018-10-11T09:57:22.021Z,21.90
2018-10-11T09:59:49.778Z,22.00
2018-10-11T10:02:17.350Z,21.90
2018-10-11T10:04:46.141Z,22.00
2018-10-11T10:07:13.647Z,21.90
2018-10-11T10:09:41.961Z,21.90
2018-10-11T10:12:10.141Z,21.80
2018-10-11T10:14:37.774Z,21.70
2018-10-11T10:17:05.798Z,21.80
2018-10-11T10:19:33.310Z,21.70
2018-10-11T10:22:01.026Z,21.90
2018-10-11T10:24:28.738Z,22.00
2018-10-11T10:26:56.317Z,22.00
2018-10-11T10:29:23.694Z,21.90
2018-10-11T10:31:51.205Z,21.70
2018-10-11T10:34:18.638Z,21.90
2018-10-11T10:36:46.078Z,21.90
2018-10-11T10:39:13.551Z,21.70
2018-10-11T10:41:41.006Z,21.30
2018-10-11T10:44:08.748Z,21.50
2018-10-11T10:46:36.762Z,21.80
2018-10-11T10:49:04.349Z,22.10
2018-10-11T10:51:32.147Z,22.50
2018-10-11T10:53:59.594Z,23.00
2018-10-11T10:56:27.125Z,23.20
2018-10-11T10:58:54.589Z,24.40
2018-10-11T11:01:22.724Z,28.40
2018-10-11T11:03:50.200Z,31.40
2018-10-11T11:06:18.035Z,33.50
2018-10-11T11:08:45.485Z,33.10
2018-10-11T11:11:13.066Z,34.10
2018-10-11T11:13:40.546Z,35.60
2018-10-11T11:16:08.478Z,36.00
2018-10-11T11:18:36.051Z,36.10
2018-10-11T11:21:03.486Z,35.90
2018-10-11T11:23:30.981Z,35.20
2018-10-11T11:25:58.458Z,32.60
2018-10-11T11:28:26.042Z,29.80
2018-10-11T11:30:53.534Z,28.20
2018-10-11T11:33:20.949Z,27.10
2018-10-11T11:35:48.454Z,26.60
2018-10-11T11:38:15.898Z,26.10
2018-10-11T11:40:43.358Z,25.60
2018-10-11T11:43:10.833Z,25.60
2018-10-11T11:45:38.295Z,25.10
2018-10-11T11:48:06.162Z,24.90
2018-10-11T11:50:33.689Z,25.20
2018-10-11T11:53:01.117Z,25.50
2018-10-11T11:55:28.550Z,25.20
2018-10-11T11:57:56.061Z,25.20
2018-10-11T12:00:26.333Z,25.20
2018-10-11T12:02:54.668Z,25.60
2018-10-11T12:05:22.221Z,25.10
2018-10-11T12:07:49.793Z,25.00
2018-10-11T12:10:17.309Z,24.70
2018-10-11T12:13:07.158Z,24.60
2018-10-11T12:15:35.345Z,24.40
2018-10-11T12:18:03.928Z,24.40
2018-10-11T12:20:33.483Z,24.40
2018-10-11T12:23:02.210Z,24.60
2018-10-11T12:25:29.936Z,24.60
2018-10-11T12:27:57.466Z,24.50
2018-10-11T12:30:25.143Z,24.50
2018-10-11T12:32:52.713Z,24.70
2018-10-11T12:35:21.319Z,24.80
2018-10-11T12:37:48.908Z,24.70
2018-10-11T12:40:16.622Z,24.70
2018-10-11T12:42:44.169Z,24.80
2018-10-11T12:45:12.478Z,24.90
2018-10-11T12:47:40.002Z,25.00
2018-10-11T12:50:08.867Z,24.80
2018-10-11T12:52:36.302Z,24.60
2018-10-11T12:55:03.936Z,24.30
2018-10-11T12:57:31.443Z,24.40
2018-10-11T12:59:58.829Z,24.60
2018-10-11T13:02:26.448Z,24.80
2018-10-11T13:04:53.877Z,24.90
2018-10-11T13:07:21.303Z,25.00
2018-10-11T13:09:48.768Z,25.10
2018-10-11T13:12:16.265Z,25.20
2018-10-11T13:14:43.698Z,25.30
2018-10-11T13:17:11.139Z,25.30
2018-10-11T13:19:38.639Z,25.40
2018-10-11T13:22:06.097Z,25.30
2018-10-11T13:24:36.683Z,25.80
2018-10-11T13:27:01.147Z,26.80
2018-10-11T13:29:28.849Z,27.80
2018-10-11T13:31:56.273Z,28.60
2018-10-11T13:34:23.760Z,29.10
2018-10-11T13:36:51.246Z,28.80
2018-10-11T13:39:22.208Z,27.70
2018-10-11T13:41:49.707Z,26.80
2018-10-11T13:44:17.139Z,26.20
2018-10-11T13:46:44.603Z,25.50
2018-10-11T13:49:12.033Z,25.40
2018-10-11T13:51:39.517Z,25.40
2018-10-11T13:54:07.005Z,25.20
2018-10-11T13:56:34.521Z,25.00
2018-10-11T13:59:06.216Z,25.00
2018-10-11T14:01:29.650Z,25.00
2018-10-11T14:03:57.141Z,24.80
2018-10-11T14:06:24.579Z,24.60
2018-10-11T14:08:52.093Z,24.50
2018-10-11T14:11:19.556Z,24.40
2018-10-11T14:13:47.066Z,24.30
2018-10-11T14:16:14.548Z,24.10
2018-10-11T14:18:42.139Z,24.00
2018-10-11T14:21:09.557Z,24.00
2018-10-11T14:23:37.660Z,24.10
2018-10-11T14:26:05.134Z,24.10
2018-10-11T14:28:32.765Z,23.90
2018-10-11T14:31:00.306Z,23.90
2018-10-11T14:33:27.930Z,24.00
2018-10-11T14:35:55.383Z,24.00
2018-10-11T14:38:22.949Z,24.00
2018-10-11T14:40:50.408Z,24.20
2018-10-11T14:43:17.917Z,24.20
2018-10-11T14:45:45.478Z,24.20
2018-10-11T14:48:13.134Z,24.20
2018-10-11T14:50:40.740Z,24.30
2018-10-11T14:53:08.406Z,24.20
2018-10-11T14:55:35.894Z,24.10
2018-10-11T14:58:03.579Z,23.80
2018-10-11T15:00:31.054Z,23.80
2018-10-11T15:02:58.524Z,24.00
2018-10-11T15:05:26.032Z,24.00
2018-10-11T15:07:53.514Z,24.00
2018-10-11T15:10:20.970Z,24.00
2018-10-11T15:12:48.416Z,24.00
2018-10-11T15:15:15.898Z,23.60
2018-10-11T15:17:43.347Z,23.70
2018-10-11T15:20:10.866Z,23.80
2018-10-11T15:22:38.314Z,23.70
2018-10-11T15:25:06.223Z,23.70
2018-10-11T15:27:33.848Z,23.50
2018-10-11T15:30:01.302Z,23.10
2018-10-11T15:32:28.742Z,22.90
2018-10-11T15:34:56.297Z,22.90
2018-10-11T15:37:23.790Z,23.10
2018-10-11T15:39:51.302Z,23.00
2018-10-11T15:42:18.750Z,22.90
2018-10-11T15:44:46.206Z,22.80
2018-10-11T15:47:13.668Z,22.60
2018-10-11T15:49:41.132Z,22.50
2018-10-11T15:52:08.694Z,22.40
2018-10-11T15:54:36.093Z,22.40
2018-10-11T15:57:03.553Z,22.30
2018-10-11T15:59:31.006Z,22.30
2018-10-11T16:01:58.437Z,22.20
2018-10-11T16:04:25.906Z,22.20
2018-10-11T16:06:53.376Z,22.10
2018-10-11T16:09:20.862Z,22.10
2018-10-11T16:11:48.316Z,22.00
2018-10-11T16:14:15.751Z,22.00
2018-10-11T16:16:43.194Z,22.00
2018-10-11T16:19:10.656Z,21.90
2018-10-11T16:21:38.301Z,21.90
2018-10-11T16:24:05.714Z,21.90
2018-10-11T16:26:33.170Z,21.90
2018-10-11T16:29:00.626Z,21.80
2018-10-11T16:31:28.135Z,21.80
2018-10-11T16:33:55.635Z,21.70
2018-10-11T16:36:23.122Z,21.70
2018-10-11T16:38:50.621Z,21.70
2018-10-11T16:41:18.064Z,21.70
2018-10-11T16:43:45.566Z,21.60
2018-10-11T16:46:12.994Z,21.60
2018-10-11T16:48:40.506Z,21.60
2018-10-11T16:51:08.011Z,21.50
2018-10-11T16:53:35.564Z,21.50
2018-10-11T16:56:03.088Z,21.50
2018-10-11T16:58:30.530Z,21.50
2018-10-11T17:01:00.226Z,21.40
2018-10-11T17:03:28.906Z,21.40
2018-10-11T17:05:56.387Z,21.40
2018-10-11T17:08:23.845Z,21.40
2018-10-11T17:10:51.314Z,21.40
2018-10-11T17:13:18.787Z,21.40
2018-10-11T17:15:46.262Z,21.30
2018-10-11T17:18:13.742Z,21.40
2018-10-11T17:20:41.232Z,21.30
2018-10-11T17:23:09.411Z,21.30
2018-10-11T17:25:37.436Z,21.30
2018-10-11T17:28:05.177Z,21.30
2018-10-11T17:30:33.499Z,21.30
2018-10-11T17:33:01.743Z,21.20
2018-10-11T17:35:29.602Z,21.20
2018-10-11T17:37:57.122Z,21.30
2018-10-11T17:40:24.618Z,21.20
2018-10-11T17:42:52.096Z,21.20
2018-10-11T17:45:19.559Z,21.10
2018-10-11T17:47:47.063Z,21.10
2018-10-11T17:50:14.559Z,21.10
2018-10-11T17:52:42.030Z,21.10
2018-10-11T17:55:09.482Z,21.10
2018-10-11T17:57:36.983Z,21.10
2018-10-11T18:00:04.565Z,21.10
2018-10-11T18:02:32.062Z,21.00
2018-10-11T18:04:59.572Z,21.00
2018-10-11T18:07:27.067Z,20.90
2018-10-11T18:09:55.595Z,21.00
2018-10-11T18:12:23.000Z,21.00
2018-10-11T18:14:50.460Z,20.90
2018-10-11T18:17:17.931Z,20.90
2018-10-11T18:19:45.542Z,20.90
2018-10-11T18:22:13.025Z,21.00
2018-10-11T18:24:40.578Z,21.70
2018-10-11T18:27:08.058Z,22.30
2018-10-11T18:29:35.594Z,22.50
2018-10-11T18:32:03.208Z,22.00
2018-10-11T18:34:30.714Z,21.80
2018-10-11T18:36:58.215Z,22.20
2018-10-11T18:39:25.719Z,22.60
2018-10-11T18:41:59.432Z,22.70
2018-10-11T18:44:26.994Z,22.90
2018-10-11T18:46:54.484Z,23.10
2018-10-11T18:49:21.937Z,23.20
2018-10-11T18:51:50.046Z,23.20
2018-10-11T18:54:18.102Z,23.20
2018-10-11T18:56:45.597Z,23.10
2018-10-11T18:59:13.123Z,22.60
2018-10-11T19:01:40.620Z,22.30
2018-10-11T19:04:08.115Z,22.00
2018-10-11T19:06:35.708Z,21.90
2018-10-11T19:09:04.539Z,22.20
2018-10-11T19:11:32.080Z,22.40
2018-10-11T19:13:59.561Z,22.60
2018-10-11T19:16:27.025Z,22.60
2018-10-11T19:18:54.486Z,22.20
2018-10-11T19:21:22.024Z,21.50
2018-10-11T19:23:49.515Z,20.90
2018-10-11T19:26:17.046Z,20.50
2018-10-11T19:28:44.494Z,20.70
2018-10-11T19:31:11.990Z,20.60
2018-10-11T19:33:39.514Z,21.00
2018-10-11T19:36:07.761Z,21.00
2018-10-11T19:38:35.819Z,20.90
2018-10-11T19:41:03.271Z,21.20
2018-10-11T19:43:30.782Z,21.70
2018-10-11T19:45:58.221Z,22.00
2018-10-11T19:48:25.812Z,22.20
2018-10-11T19:50:53.265Z,22.20
2018-10-11T19:53:20.812Z,22.10
2018-10-11T19:55:49.854Z,21.80
2018-10-11T19:58:17.372Z,21.60
2018-10-11T20:00:44.854Z,21.50
2018-10-11T20:03:12.589Z,20.90
2018-10-11T20:05:40.077Z,20.60
2018-10-11T20:08:07.689Z,20.70
2018-10-11T20:10:35.043Z,20.90
2018-10-11T20:13:02.581Z,21.30
2018-10-11T20:15:30.646Z,21.40
2018-10-11T20:17:58.136Z,21.20
2018-10-11T20:20:26.451Z,20.50
2018-10-11T20:25:50.251Z,20.10
2018-10-11T20:28:17.771Z,20.20
2018-10-11T20:30:45.279Z,19.80
2018-10-11T20:33:12.831Z,19.90
2018-10-11T20:35:40.377Z,20.30
2018-10-11T20:38:07.924Z,20.20
2018-10-11T20:40:36.186Z,20.10
2018-10-11T20:43:03.794Z,20.00
2018-10-11T20:45:31.365Z,20.10
2018-10-11T20:47:58.884Z,20.10
2018-10-11T20:50:26.448Z,20.60
2018-10-11T20:52:53.996Z,21.10
2018-10-11T20:55:21.564Z,21.10
2018-10-11T20:57:49.225Z,20.90
2018-10-11T21:00:17.398Z,21.10
2018-10-11T21:02:44.983Z,21.30
2018-10-11T21:05:12.533Z,21.50
2018-10-11T21:07:40.151Z,21.70
2018-10-11T21:10:07.955Z,21.60
2018-10-11T21:12:35.547Z,21.50
2018-10-11T21:15:03.220Z,21.50
2018-10-11T21:17:30.810Z,21.50
2018-10-11T21:19:58.437Z,21.30
2018-10-11T21:22:25.968Z,21.30
2018-10-11T21:24:53.534Z,21.50
2018-10-11T21:27:21.073Z,21.50
2018-10-11T21:29:48.655Z,21.70
2018-10-11T21:32:16.223Z,21.70
2018-10-11T21:34:44.068Z,21.60
2018-10-11T21:37:11.654Z,21.70
2018-10-11T21:39:39.230Z,21.70
2018-10-11T21:42:06.830Z,21.80
2018-10-11T21:44:34.371Z,21.80
2018-10-11T21:47:01.906Z,21.60
2018-10-11T21:49:29.480Z,21.30
2018-10-11T21:51:57.049Z,21.20
2018-10-11T21:54:24.616Z,21.10
2018-10-11T21:56:52.163Z,21.20
2018-10-11T21:59:19.690Z,21.30
2018-10-11T22:01:47.292Z,21.60
2018-10-11T22:04:14.852Z,21.70
2018-10-11T22:06:42.412Z,21.70
2018-10-11T22:09:09.940Z,21.70
2018-10-11T22:11:37.497Z,21.20
2018-10-11T22:14:05.020Z,20.80
2018-10-11T22:16:32.535Z,20.40
2018-10-11T22:19:00.100Z,20.20
2018-10-11T22:21:27.669Z,20.30
2018-10-11T22:23:55.172Z,20.60
2018-10-11T22:26:22.839Z,20.90
2018-10-11T22:28:50.516Z,21.20
2018-10-11T22:31:18.053Z,21.40
2018-10-11T22:33:45.570Z,21.60
2018-10-11T22:36:13.115Z,21.60
2018-10-11T22:38:41.239Z,21.40
2018-10-11T22:41:09.498Z,20.90
2018-10-11T22:43:37.056Z,20.90
2018-10-11T22:46:04.643Z,20.50
2018-10-11T22:48:32.214Z,20.20
2018-10-11T22:50:59.697Z,20.00
2018-10-11T22:53:27.212Z,19.90
2018-10-11T22:55:54.764Z,19.70
2018-10-11T22:58:22.296Z,19.50
2018-10-11T23:00:49.806Z,19.80
2018-10-11T23:04:59.365Z,20.40
2018-10-11T23:07:26.901Z,20.80
2018-10-11T23:09:54.403Z,21.00
2018-10-11T23:12:22.214Z,20.60
2018-10-11T23:14:49.717Z,20.30
2018-10-11T23:17:17.113Z,20.00
2018-10-11T23:19:44.561Z,20.20
2018-10-11T23:22:12.024Z,19.90
2018-10-11T23:24:39.476Z,20.20
2018-10-11T23:27:06.927Z,20.50
2018-10-11T23:29:34.357Z,20.90
2018-10-11T23:32:01.822Z,20.60
2018-10-11T23:34:29.275Z,20.40
2018-10-11T23:36:56.713Z,20.20
2018-10-11T23:39:24.202Z,19.70
2018-10-11T23:41:51.673Z,19.40
2018-10-11T23:44:19.130Z,19.40
2018-10-11T23:46:46.623Z,19.10
2018-10-11T23:49:14.082Z,19.10
2018-10-11T23:51:41.518Z,19.40
2018-10-11T23:54:08.974Z,19.80
2018-10-11T23:56:36.419Z,20.10
2018-10-11T23:59:03.867Z,20.40
